JA53GM RJFK-RJFK

Flight info

Callsign JA53GM
Flight time 0h 28m
Altitude 0000
Route N0110/LCL
Aircraft SR22/L-SDLOV/LB1

Departure

Time 2026-04-30 12:32
Airport Kagoshima Airport (RJFK)

Arrival

Time 2026-04-30 13:01
Airport Kagoshima Airport (RJFK)
Time Latitude Longitude Altitude Speed Heading
2026-04-30 12:10 31.79616 130.72131 866 ft 0 kts 148°
2026-04-30 12:27 31.79616 130.72134 871 ft 0 kts 66°
2026-04-30 12:27 31.79621 130.72131 871 ft 1 kts 330°
2026-04-30 12:27 31.79643 130.72124 871 ft 2 kts 29°
2026-04-30 12:28 31.79658 130.72159 871 ft 6 kts 93°
2026-04-30 12:28 31.79621 130.72200 870 ft 10 kts 153°
2026-04-30 12:28 31.79548 130.72249 868 ft 12 kts 148°
2026-04-30 12:28 31.79479 130.72321 865 ft 11 kts 102°
2026-04-30 12:29 31.79492 130.72383 865 ft 0 kts 26°
2026-04-30 12:30 31.79525 130.72423 864 ft 16 kts 50°
2026-04-30 12:30 31.79575 130.72452 864 ft 0 kts 328°
2026-04-30 12:31 31.79604 130.72432 865 ft 27 kts 329°
2026-04-30 12:31 31.79990 130.72171 902 ft 89 kts 330°
2026-04-30 12:31 31.80573 130.71774 1162 ft 102 kts 329°
2026-04-30 12:32 31.81203 130.71361 1479 ft 104 kts 330°
2026-04-30 12:32 31.81891 130.70912 1704 ft 121 kts 330°
2026-04-30 12:32 31.82618 130.70435 2110 ft 118 kts 330°
2026-04-30 12:32 31.83318 130.69975 2512 ft 115 kts 330°
2026-04-30 12:33 31.83917 130.69385 2875 ft 115 kts 301°
2026-04-30 12:33 31.84048 130.68483 3224 ft 116 kts 257°
2026-04-30 12:33 31.83818 130.67574 3571 ft 117 kts 252°
2026-04-30 12:33 31.83576 130.66663 3914 ft 117 kts 252°
2026-04-30 12:34 31.83337 130.65758 4243 ft 118 kts 252°
2026-04-30 12:34 31.83092 130.64836 4570 ft 118 kts 252°
2026-04-30 12:34 31.82848 130.63916 4886 ft 119 kts 252°
2026-04-30 12:34 31.82602 130.62990 5196 ft 119 kts 252°
2026-04-30 12:35 31.82355 130.62062 5497 ft 120 kts 252°
2026-04-30 12:35 31.82108 130.61133 5791 ft 120 kts 252°
2026-04-30 12:35 31.81813 130.60196 5976 ft 129 kts 236°
2026-04-30 12:35 31.81078 130.59479 6012 ft 146 kts 212°
2026-04-30 12:36 31.80175 130.58806 6007 ft 160 kts 212°
2026-04-30 12:36 31.79197 130.58101 6000 ft 168 kts 205°
2026-04-30 12:36 31.78029 130.57919 6008 ft 171 kts 180°
2026-04-30 12:36 31.76829 130.57936 5999 ft 175 kts 179°
2026-04-30 12:37 31.75601 130.57976 5996 ft 176 kts 178°
2026-04-30 12:37 31.74350 130.58032 5995 ft 177 kts 177°
2026-04-30 12:37 31.73121 130.58101 5995 ft 178 kts 177°
2026-04-30 12:37 31.71880 130.58179 5995 ft 178 kts 176°
2026-04-30 12:38 31.70630 130.58260 5994 ft 178 kts 176°
2026-04-30 12:38 31.69393 130.58351 5995 ft 178 kts 175°
2026-04-30 12:38 31.68167 130.58464 6089 ft 173 kts 175°
2026-04-30 12:38 31.66980 130.58557 6225 ft 168 kts 181°
2026-04-30 12:39 31.65834 130.58443 6368 ft 165 kts 185°
2026-04-30 12:39 31.64684 130.58313 6478 ft 165 kts 185°
2026-04-30 12:39 31.63536 130.58183 6495 ft 169 kts 185°
2026-04-30 12:39 31.62383 130.57871 6482 ft 173 kts 211°
2026-04-30 12:40 31.61679 130.56755 6488 ft 175 kts 256°
2026-04-30 12:40 31.61848 130.55376 6489 ft 176 kts 300°
2026-04-30 12:40 31.62813 130.54521 6488 ft 177 kts 345°
2026-04-30 12:40 31.63994 130.54701 6488 ft 177 kts 29°
2026-04-30 12:41 31.64743 130.55826 6488 ft 177 kts 75°
2026-04-30 12:41 31.64598 130.57225 6488 ft 177 kts 119°
2026-04-30 12:41 31.63654 130.58102 6488 ft 177 kts 163°
2026-04-30 12:41 31.62448 130.58321 6490 ft 177 kts 162°
2026-04-30 12:42 31.61524 130.59245 6500 ft 177 kts 116°
2026-04-30 12:42 31.61433 130.60635 6502 ft 177 kts 72°
2026-04-30 12:42 31.62210 130.61705 6503 ft 177 kts 27°
2026-04-30 12:42 31.63425 130.61818 6502 ft 177 kts 341°
2026-04-30 12:43 31.64338 130.60899 6502 ft 177 kts 296°
2026-04-30 12:43 31.64427 130.59485 6502 ft 178 kts 251°
2026-04-30 12:43 31.63633 130.58415 6502 ft 178 kts 206°
2026-04-30 12:43 31.62442 130.58110 6504 ft 178 kts 187°
2026-04-30 12:44 31.61212 130.57912 6496 ft 178 kts 187°
2026-04-30 12:44 31.59979 130.57715 6495 ft 178 kts 187°
2026-04-30 12:44 31.58785 130.57307 6478 ft 179 kts 215°
2026-04-30 12:44 31.58134 130.56114 6486 ft 178 kts 259°
2026-04-30 12:45 31.58382 130.54742 6487 ft 178 kts 304°
2026-04-30 12:45 31.59389 130.53957 6487 ft 178 kts 348°
2026-04-30 12:45 31.60582 130.54230 6487 ft 178 kts 33°
2026-04-30 12:45 31.61262 130.55397 6487 ft 178 kts 78°
2026-04-30 12:46 31.61040 130.56795 6488 ft 178 kts 123°
2026-04-30 12:46 31.60046 130.57600 6488 ft 178 kts 167°
2026-04-30 12:46 31.58816 130.57550 6498 ft 177 kts 181°
2026-04-30 12:46 31.57696 130.58050 6500 ft 177 kts 136°
2026-04-30 12:47 31.57203 130.59335 6502 ft 177 kts 91°
2026-04-30 12:47 31.57628 130.60648 6503 ft 178 kts 46°
2026-04-30 12:47 31.58726 130.61230 6503 ft 178 kts
2026-04-30 12:47 31.59866 130.60727 6502 ft 178 kts 316°
2026-04-30 12:48 31.60359 130.59439 6502 ft 178 kts 271°
2026-04-30 12:48 31.59927 130.58116 6502 ft 178 kts 226°
2026-04-30 12:48 31.58822 130.57515 6511 ft 177 kts 188°
2026-04-30 12:48 31.57598 130.57323 6498 ft 178 kts 187°
2026-04-30 12:49 31.56363 130.57130 6495 ft 178 kts 187°
2026-04-30 12:49 31.55132 130.56940 6490 ft 179 kts 187°
2026-04-30 12:49 31.53893 130.56747 6494 ft 178 kts 187°
2026-04-30 12:49 31.52653 130.56555 6492 ft 178 kts 187°
2026-04-30 12:50 31.51427 130.56505 6485 ft 178 kts 165°
2026-04-30 12:50 31.50462 130.57352 6500 ft 178 kts 120°
2026-04-30 12:50 31.50269 130.58766 6512 ft 177 kts 83°
2026-04-30 12:50 31.50424 130.60185 6499 ft 178 kts 82°
2026-04-30 12:51 31.50585 130.61629 6497 ft 178 kts 82°
2026-04-30 12:51 31.50746 130.63071 6497 ft 178 kts 82°
2026-04-30 12:51 31.50927 130.64504 6494 ft 178 kts 74°
2026-04-30 12:51 31.51461 130.65834 6342 ft 185 kts 62°
2026-04-30 12:52 31.52064 130.67191 6153 ft 190 kts 62°
2026-04-30 12:52 31.52681 130.68578 5958 ft 191 kts 62°
2026-04-30 12:52 31.53299 130.69966 5761 ft 192 kts 62°
2026-04-30 12:52 31.53914 130.71346 5566 ft 191 kts 62°
2026-04-30 12:53 31.54524 130.72716 5365 ft 188 kts 62°
2026-04-30 12:53 31.55127 130.74068 5166 ft 187 kts 62°
2026-04-30 12:53 31.55715 130.75385 4888 ft 179 kts 62°
2026-04-30 12:53 31.56288 130.76669 4638 ft 179 kts 62°
2026-04-30 12:54 31.56876 130.77988 4394 ft 183 kts 62°
2026-04-30 12:54 31.57469 130.79317 4150 ft 185 kts 61°
2026-04-30 12:54 31.58380 130.80292 4023 ft 179 kts 24°
2026-04-30 12:54 31.59516 130.80849 3998 ft 174 kts 22°
2026-04-30 12:55 31.60632 130.81390 3994 ft 171 kts 22°
2026-04-30 12:55 31.61730 130.81909 3992 ft 169 kts 17°
2026-04-30 12:55 31.62926 130.82050 3863 ft 175 kts
2026-04-30 12:55 31.64152 130.82114 3698 ft 179 kts
2026-04-30 12:56 31.65405 130.82178 3529 ft 182 kts
2026-04-30 12:56 31.66680 130.82104 3344 ft 184 kts 340°
2026-04-30 12:56 31.67594 130.81154 3307 ft 178 kts 299°
2026-04-30 12:56 31.68346 130.80025 3292 ft 173 kts 321°
2026-04-30 12:57 31.69383 130.79283 3119 ft 178 kts 330°
2026-04-30 12:57 31.70468 130.78569 2863 ft 181 kts 330°
2026-04-30 12:57 31.71503 130.77878 2606 ft 163 kts 330°
2026-04-30 12:57 31.72454 130.77240 2381 ft 149 kts 330°
2026-04-30 12:58 31.73325 130.76654 2183 ft 140 kts 330°
2026-04-30 12:58 31.74150 130.76099 1999 ft 133 kts 330°
2026-04-30 12:58 31.74901 130.75594 1869 ft 111 kts 330°
2026-04-30 12:58 31.75523 130.75176 1718 ft 94 kts 330°
2026-04-30 12:59 31.76058 130.74817 1580 ft 84 kts 330°
2026-04-30 12:59 31.76567 130.74474 1467 ft 83 kts 330°
2026-04-30 12:59 31.77062 130.74141 1361 ft 83 kts 330°
2026-04-30 12:59 31.77573 130.73798 1252 ft 84 kts 330°
2026-04-30 13:00 31.78083 130.73454 1141 ft 85 kts 330°
2026-04-30 13:00 31.78600 130.73109 1033 ft 85 kts 329°
2026-04-30 13:00 31.79109 130.72766 932 ft 84 kts 330°
2026-04-30 13:00 31.79612 130.72429 865 ft 75 kts 329°
2026-04-30 13:01 31.79924 130.72217 874 ft 28 kts 327°
2026-04-30 13:01 31.80008 130.72165 877 ft 4 kts 317°
2026-04-30 13:01 31.80022 130.72136 877 ft 4 kts 288°
2026-04-30 13:01 31.80016 130.72080 878 ft 9 kts 244°
2026-04-30 13:02 31.79981 130.72009 878 ft 10 kts 232°
2026-04-30 13:02 31.79902 130.72009 877 ft 14 kts 150°
2026-04-30 13:02 31.79812 130.72070 875 ft 15 kts 155°
2026-04-30 13:02 31.79724 130.72127 873 ft 11 kts 145°
2026-04-30 13:03 31.79663 130.72156 871 ft 6 kts 217°
2026-04-30 13:03 31.79635 130.72122 871 ft 4 kts 189°
2026-04-30 13:03 31.79618 130.72131 871 ft 0 kts 150°